Time;durP1;ratioP1;P1;durP2;ratioP2;P2;SDS_P1;SDS_P2;PMS_P1;PMS_P2;Temp;Humidity;BMP_temperature;BMP_pressure;BME280_temperature;BME280_humidity;BME280_pressure;Samples;Min_cycle;Max_cycle;Signal;HPM_P1;HPM_P2
2022/01/08 00:00:30;;;;;;;;;;;;;;;-7.29;100.00;100032.91;1699699;84;20117;-67
2022/01/08 00:02:57;;;;;;;;;;;;;;;-7.28;100.00;100031.46;1698416;84;20194;-67
2022/01/08 00:05:24;;;;;;;;;;;;;;;-7.31;100.00;100033.52;1701505;84;20267;-68
2022/01/08 00:07:50;;;;;;;;;;;;;;;-7.34;100.00;100031.98;1695873;83;21132;-67
2022/01/08 00:10:16;;;;;;;;;;;;;;;-7.33;100.00;100031.02;1700232;83;20183;-68
2022/01/08 00:12:43;;;;;;;;;;;;;;;-7.30;100.00;100024.72;1700233;83;20138;-67
2022/01/08 00:15:10;;;;;;;;;;;;;;;-7.26;100.00;100029.56;1714703;82;20150;-66
2022/01/08 00:17:36;;;;;;;;;;;;;;;-7.33;100.00;100030.53;1717613;83;20124;-67
2022/01/08 00:20:05;;;;;;;;;;;;;;;-7.37;100.00;100029.16;1717807;83;21980;-68
2022/01/08 00:22:31;;;;;;;;;;;;;;;-7.43;100.00;100036.65;1747221;82;20240;-67
2022/01/08 00:24:58;;;;;;;;;;;;;;;-7.40;100.00;100035.09;1744528;82;20102;-67
2022/01/08 00:27:24;;;;;;;;;;;;;;;-7.28;100.00;100035.86;1728542;82;20637;-67
2022/01/08 00:29:51;;;;;;;;;;;;;;;-7.28;100.00;100034.55;1745127;81;20126;-67
2022/01/08 00:32:18;;;;;;;;;;;;;;;-7.36;100.00;100043.02;1747061;81;21901;-67
2022/01/08 00:34:44;;;;;;;;;;;;;;;-7.44;100.00;100037.13;1733966;81;20625;-67
2022/01/08 00:37:11;;;;;;;;;;;;;;;-7.40;100.00;100031.17;1720320;82;20177;-67
2022/01/08 00:39:38;;;;;;;;;;;;;;;-7.38;100.00;100022.27;1720364;82;20579;-67
2022/01/08 00:42:05;;;;;;;;;;;;;;;-7.44;100.00;100006.33;1726747;81;20256;-67
2022/01/08 00:44:31;;;;;;;;;;;;;;;-7.48;100.00;100008.83;1749772;82;21210;-66
2022/01/08 00:46:58;;;;;;;;;;;;;;;-7.55;100.00;100002.80;1745199;81;20416;-67
2022/01/08 00:49:25;;;;;;;;;;;;;;;-7.66;100.00;100016.38;1721518;83;20475;-68
2022/01/08 00:51:51;;;;;;;;;;;;;;;-7.69;100.00;100018.77;1714497;83;20433;-68
2022/01/08 00:54:18;;;;;;;;;;;;;;;-7.63;100.00;100022.16;1708070;84;20146;-68
2022/01/08 00:56:45;;;;;;;;;;;;;;;-7.61;100.00;100013.74;1710091;83;21839;-67
2022/01/08 00:59:11;;;;;;;;;;;;;;;-7.59;100.00;100026.66;1697281;84;20465;-65
2022/01/08 01:01:38;;;;;;;;;;;;;;;-7.51;100.00;100028.64;1683780;85;20132;-66
2022/01/08 01:04:04;;;;;;;;;;;;;;;-7.49;100.00;100025.44;1683716;85;20495;-66
2022/01/08 01:06:31;;;;;;;;;;;;;;;-7.46;100.00;100021.27;1683938;85;20076;-67
2022/01/08 01:08:57;;;;;;;;;;;;;;;-7.47;100.00;100031.33;1683700;85;21161;-66
2022/01/08 01:11:24;;;;;;;;;;;;;;;-7.45;100.00;100030.73;1683669;85;20116;-67
2022/01/08 01:13:50;;;;;;;;;;;;;;;-7.41;100.00;100029.05;1684017;85;20087;-66
2022/01/08 01:16:18;;;;;;;;;;;;;;;-7.42;100.00;100025.25;1683297;85;20111;-67
2022/01/08 01:18:45;;;;;;;;;;;;;;;-7.43;100.00;100015.78;1683426;85;20159;-67
2022/01/08 01:21:11;;;;;;;;;;;;;;;-7.46;100.00;100022.08;1683707;85;21114;-68
2022/01/08 01:23:42;;;;;;;;;;;;;;;-7.47;100.00;100015.68;1684066;85;20122;-68
2022/01/08 01:26:11;;;;;;;;;;;;;;;-7.44;100.00;100023.27;1683286;84;20087;-69
2022/01/08 01:28:48;;;;;;;;;;;;;;;-7.39;100.00;100017.20;1683512;85;20472;-68
2022/01/08 01:47:19;;;;;;;;;;;;;;;-7.53;100.00;100010.50;1683966;85;21809;-68
2022/01/08 01:49:47;;;;;;;;;;;;;;;-7.56;100.00;100005.55;1699141;83;20212;-67
2022/01/08 01:52:15;;;;;;;;;;;;;;;-7.61;100.00;99999.41;1694400;83;20148;-67
2022/01/08 01:54:42;;;;;;;;;;;;;;;-7.63;100.00;100000.00;1695073;83;20579;-68
2022/01/08 01:57:09;;;;;;;;;;;;;;;-7.63;100.00;99998.70;1691017;85;20175;-67
2022/01/08 01:59:36;;;;;;;;;;;;;;;-7.66;100.00;99993.75;1700728;83;21223;-67
2022/01/08 02:02:04;;;;;;;;;;;;;;;-7.70;100.00;99996.24;1716002;83;20121;-67
2022/01/08 02:04:30;;;;;;;;;;;;;;;-7.72;100.00;99992.11;1713840;83;20089;-68
2022/01/08 02:06:57;;;;;;;;;;;;;;;-7.73;100.00;99992.59;1700142;84;20101;-67
2022/01/08 02:09:25;;;;;;;;;;;;;;;-7.74;100.00;99991.40;1711105;83;20506;-68
2022/01/08 02:11:58;;;;;;;;;;;;;;;-7.79;100.00;99991.32;1699489;83;21130;-68
2022/01/08 02:14:25;;;;;;;;;;;;;;;-7.83;100.00;99983.39;1683084;85;20088;-67
2022/01/08 02:16:52;;;;;;;;;;;;;;;-7.85;100.00;99977.95;1684157;85;20104;-67
2022/01/08 02:19:18;;;;;;;;;;;;;;;-7.88;100.00;99982.12;1683928;85;20088;-68
2022/01/08 02:21:54;;;;;;;;;;;;;;;-7.88;100.00;99986.85;1684202;85;20127;-68
2022/01/08 02:24:21;;;;;;;;;;;;;;;-7.88;100.00;99982.94;1683175;85;21163;-67
2022/01/08 02:26:48;;;;;;;;;;;;;;;-7.86;100.00;99983.65;1683910;85;20087;-67
2022/01/08 02:29:16;;;;;;;;;;;;;;;-7.86;100.00;99961.98;1683667;85;20156;-67
2022/01/08 02:31:57;;;;;;;;;;;;;;;-7.90;100.00;99967.08;1684071;85;20190;-67
2022/01/08 02:34:25;;;;;;;;;;;;;;;-7.97;100.00;99958.45;1683830;85;20127;-66
2022/01/08 02:36:54;;;;;;;;;;;;;;;-8.07;100.00;99961.45;1683688;85;21983;-69
2022/01/08 02:39:21;;;;;;;;;;;;;;;-8.12;100.00;99970.12;1683014;85;20088;-66
2022/01/08 02:41:47;;;;;;;;;;;;;;;-8.12;100.00;99964.91;1683939;85;20124;-66
2022/01/08 02:44:14;;;;;;;;;;;;;;;-8.12;100.00;99970.12;1683630;85;21014;-64
2022/01/08 02:46:41;;;;;;;;;;;;;;;-8.14;100.00;99972.02;1684001;85;20127;-65
2022/01/08 02:49:08;;;;;;;;;;;;;;;-8.14;100.00;99975.10;1706779;83;21223;-66
2022/01/08 02:51:35;;;;;;;;;;;;;;;-8.12;100.00;99971.42;1715022;83;20134;-66
2022/01/08 02:54:03;;;;;;;;;;;;;;;-8.06;100.00;99977.45;1703644;83;20150;-65
2022/01/08 02:56:31;;;;;;;;;;;;;;;-8.01;100.00;99979.20;1698615;83;20631;-66
2022/01/08 02:58:57;;;;;;;;;;;;;;;-7.99;100.00;99975.16;1695824;83;20444;-67
2022/01/08 03:01:24;;;;;;;;;;;;;;;-7.98;100.00;99980.25;1691153;84;21219;-67
2022/01/08 03:03:52;;;;;;;;;;;;;;;-8.00;100.00;99991.27;1698080;83;20102;-67
2022/01/08 03:06:18;;;;;;;;;;;;;;;-8.04;100.00;99985.13;1715734;83;20446;-66
2022/01/08 03:08:45;;;;;;;;;;;;;;;-8.07;100.00;99984.08;1717092;83;20205;-67
2022/01/08 03:11:12;;;;;;;;;;;;;;;-8.11;100.00;99982.17;1715167;83;20125;-66
2022/01/08 03:13:40;;;;;;;;;;;;;;;-8.12;100.00;99981.84;1715582;83;20137;-67
2022/01/08 03:16:06;;;;;;;;;;;;;;;-8.16;100.00;99975.69;1707327;83;20179;-67
2022/01/08 03:18:35;;;;;;;;;;;;;;;-8.17;100.00;99974.88;1693234;84;20143;-66
2022/01/08 03:21:11;;;;;;;;;;;;;;;-8.19;100.00;99977.59;1700803;84;20103;-66
2022/01/08 03:23:48;;;;;;;;;;;;;;;-8.17;100.00;99976.66;1738236;82;20469;-66
2022/01/08 03:26:07;;;;;;;;;;;;;;;-8.20;100.00;99971.22;1738109;82;21117;-67
2022/01/08 03:28:34;;;;;;;;;;;;;;;-8.20;100.00;99969.44;1739717;82;20072;-67
2022/01/08 03:31:00;;;;;;;;;;;;;;;-8.16;100.00;99967.88;1739721;82;20123;-67
2022/01/08 03:33:27;;;;;;;;;;;;;;;-8.17;100.00;99966.23;1739652;82;20130;-67
2022/01/08 03:35:53;;;;;;;;;;;;;;;-8.19;100.00;99964.56;1739779;82;20119;-67
2022/01/08 03:38:20;;;;;;;;;;;;;;;-8.20;100.00;99960.80;1739662;82;21157;-67
2022/01/08 03:40:47;;;;;;;;;;;;;;;-8.22;100.00;99963.52;1739771;82;20103;-66
2022/01/08 03:43:13;;;;;;;;;;;;;;;-8.25;100.00;99962.95;1739625;82;20099;-67
2022/01/08 03:45:40;;;;;;;;;;;;;;;-8.29;100.00;99960.23;1739852;82;20079;-67
2022/01/08 03:50:35;;;;;;;;;;;;;;;-8.31;100.00;99954.31;1739404;82;21207;-65
2022/01/08 03:53:01;;;;;;;;;;;;;;;-8.30;100.00;99961.19;1741398;82;20535;-67
2022/01/08 03:55:28;;;;;;;;;;;;;;;-8.29;100.00;99961.53;1733222;82;20099;-66
2022/01/08 03:57:54;;;;;;;;;;;;;;;-8.26;100.00;99963.41;1716890;83;20620;-67
2022/01/08 04:00:21;;;;;;;;;;;;;;;-8.22;100.00;99958.79;1691710;83;20087;-68
2022/01/08 04:02:47;;;;;;;;;;;;;;;-8.24;100.00;99958.91;1740854;82;21822;-67
2022/01/08 04:05:14;;;;;;;;;;;;;;;-8.26;100.00;99956.89;1715214;83;20425;-67
2022/01/08 04:07:40;;;;;;;;;;;;;;;-8.27;100.00;99955.73;1737929;81;20525;-65
2022/01/08 04:10:08;;;;;;;;;;;;;;;-8.30;100.00;99955.50;1725877;83;20076;-68
2022/01/08 04:12:41;;;;;;;;;;;;;;;-8.35;100.00;99956.80;1736453;81;20087;-67
2022/01/08 04:15:30;;;;;;;;;;;;;;;-8.39;100.00;99961.95;1743975;82;21128;-67
2022/01/08 04:17:33;;;;;;;;;;;;;;;-8.44;100.00;99955.32;1724458;83;20137;-67
2022/01/08 04:19:59;;;;;;;;;;;;;;;-8.46;100.00;99945.50;1726290;82;20097;-67
2022/01/08 04:22:28;;;;;;;;;;;;;;;-8.44;100.00;99948.81;1726263;82;20204;-66
2022/01/08 04:24:56;;;;;;;;;;;;;;;-8.43;100.00;99953.09;1726357;82;20121;-67
2022/01/08 04:27:22;;;;;;;;;;;;;;;-8.41;100.00;99952.47;1727444;82;21139;-66
2022/01/08 04:29:48;;;;;;;;;;;;;;;-8.35;100.00;99953.75;1726873;82;20438;-66
2022/01/08 04:32:15;;;;;;;;;;;;;;;-8.33;100.00;99949.22;1726784;82;20415;-67
2022/01/08 04:34:42;;;;;;;;;;;;;;;-8.28;100.00;99947.55;1726289;83;20089;-67
2022/01/08 04:37:10;;;;;;;;;;;;;;;-8.27;100.00;99946.62;1726175;83;20116;-67
2022/01/08 04:39:37;;;;;;;;;;;;;;;-8.25;100.00;99947.33;1725643;83;21208;-67
2022/01/08 04:42:04;;;;;;;;;;;;;;;-8.18;100.00;99945.88;1726774;82;20159;-66
2022/01/08 04:44:31;;;;;;;;;;;;;;;-8.17;100.00;99940.19;1724565;82;20121;-67
2022/01/08 04:46:58;;;;;;;;;;;;;;;-8.17;100.00;99945.40;1727183;82;20559;-67
2022/01/08 04:49:24;;;;;;;;;;;;;;;-8.22;100.00;99951.80;1726291;82;20101;-67
2022/01/08 04:51:51;;;;;;;;;;;;;;;-8.23;100.00;99952.77;1726597;83;21812;-67
2022/01/08 04:54:19;;;;;;;;;;;;;;;-8.24;100.00;99948.97;1725678;82;20120;-67
2022/01/08 04:56:45;;;;;;;;;;;;;;;-8.27;100.00;99946.62;1726440;83;20192;-66
2022/01/08 04:59:12;;;;;;;;;;;;;;;-8.28;100.00;99941.04;1725746;83;20145;-66
2022/01/08 05:01:39;;;;;;;;;;;;;;;-8.26;100.00;99946.95;1726119;83;20113;-68
2022/01/08 05:04:05;;;;;;;;;;;;;;;-8.25;100.00;99936.91;1726928;82;21880;-67
2022/01/08 05:06:33;;;;;;;;;;;;;;;-8.27;100.00;99931.81;1744629;82;20095;-67
2022/01/08 05:09:00;;;;;;;;;;;;;;;-8.27;100.00;99932.30;1744546;82;20437;-66
2022/01/08 05:11:27;;;;;;;;;;;;;;;-8.24;100.00;99924.23;1735816;81;20103;-67
2022/01/08 05:13:55;;;;;;;;;;;;;;;-8.27;100.00;99927.09;1735256;82;20101;-67
2022/01/08 05:16:22;;;;;;;;;;;;;;;-8.30;100.00;99926.86;1747000;82;21174;-67
2022/01/08 05:18:51;;;;;;;;;;;;;;;-8.30;100.00;99928.64;1741837;81;20110;-67
2022/01/08 05:21:25;;;;;;;;;;;;;;;-8.31;100.00;99939.98;1762911;81;20113;-68
2022/01/08 05:23:48;;;;;;;;;;;;;;;-8.29;100.00;99940.70;1762251;81;20094;-67
2022/01/08 05:26:15;;;;;;;;;;;;;;;-8.30;100.00;99932.55;1763074;81;20082;-68
2022/01/08 05:28:44;;;;;;;;;;;;;;;-8.30;100.00;99932.55;1762776;81;21104;-68
2022/01/08 05:31:11;;;;;;;;;;;;;;;-8.34;100.00;99941.55;1754338;81;20135;-67
2022/01/08 05:33:38;;;;;;;;;;;;;;;-8.40;100.00;99945.51;1736245;82;20138;-69
2022/01/08 05:36:04;;;;;;;;;;;;;;;-8.43;100.00;99947.03;1738976;82;20572;-67
2022/01/08 05:38:31;;;;;;;;;;;;;;;-8.45;100.00;99947.17;1738883;82;20163;-68
2022/01/08 05:40:57;;;;;;;;;;;;;;;-8.43;100.00;99945.73;1738458;82;20726;-68
2022/01/08 05:43:24;;;;;;;;;;;;;;;-8.43;100.00;99945.28;1740899;82;20107;-68
2022/01/08 05:45:50;;;;;;;;;;;;;;;-8.44;100.00;99948.81;1723202;82;20481;-70
2022/01/08 05:48:17;;;;;;;;;;;;;;;-8.41;100.00;99949.04;1721776;81;20510;-68
2022/01/08 05:50:43;;;;;;;;;;;;;;;-8.40;100.00;99952.02;1712576;83;20204;-69
2022/01/08 05:53:09;;;;;;;;;;;;;;;-8.36;100.00;99952.55;1715397;83;21757;-68
2022/01/08 05:55:36;;;;;;;;;;;;;;;-8.37;100.00;99954.81;1716286;81;20168;-70
2022/01/08 05:58:02;;;;;;;;;;;;;;;-8.38;100.00;99959.17;1715083;81;21166;-67
2022/01/08 06:00:29;;;;;;;;;;;;;;;-8.34;100.00;99962.37;1686133;85;20461;-68
2022/01/08 06:02:55;;;;;;;;;;;;;;;-8.31;100.00;99960.34;1729947;82;20184;-68
2022/01/08 06:05:22;;;;;;;;;;;;;;;-8.32;100.00;99958.70;1712288;82;21302;-67
2022/01/08 06:07:49;;;;;;;;;;;;;;;-8.33;100.00;99951.00;1702653;83;20741;-68
2022/01/08 06:10:15;;;;;;;;;;;;;;;-8.32;100.00;99953.49;1742347;82;20161;-69
2022/01/08 06:12:41;;;;;;;;;;;;;;;-8.31;100.00;99951.70;1699422;83;20138;-70
2022/01/08 06:15:09;;;;;;;;;;;;;;;-8.29;100.00;99945.91;1700933;83;20155;-67
2022/01/08 06:17:35;;;;;;;;;;;;;;;-8.25;100.00;99953.36;1711751;82;21171;-67
2022/01/08 06:20:04;;;;;;;;;;;;;;;-8.18;100.00;99953.70;1721042;82;20408;-68
2022/01/08 06:22:30;;;;;;;;;;;;;;;-8.16;100.00;99960.89;1719095;82;20189;-67
2022/01/08 06:24:58;;;;;;;;;;;;;;;-8.15;100.00;99962.56;1694874;82;20476;-67
2022/01/08 06:27:27;;;;;;;;;;;;;;;-8.14;100.00;99962.08;1693971;82;20232;-68
2022/01/08 06:29:55;;;;;;;;;;;;;;;-8.14;100.00;99966.80;1723485;81;21145;-67
2022/01/08 06:32:21;;;;;;;;;;;;;;;-8.10;100.00;99968.70;1716971;83;20157;-67
2022/01/08 06:34:49;;;;;;;;;;;;;;;-7.98;100.00;99968.53;1713085;82;20168;-68
2022/01/08 06:37:16;;;;;;;;;;;;;;;-7.76;100.00;99970.70;1714645;81;20169;-68
2022/01/08 06:39:44;;;;;;;;;;;;;;;-7.45;100.00;99978.58;1707443;83;20170;-69
2022/01/08 06:42:10;;;;;;;;;;;;;;;-7.19;100.00;99974.62;1679074;85;21143;-68
2022/01/08 06:44:37;;;;;;;;;;;;;;;-7.00;100.00;99974.38;1696075;83;20115;-69
2022/01/08 06:47:03;;;;;;;;;;;;;;;-6.84;100.00;99974.70;1685716;83;20181;-69
2022/01/08 06:49:32;;;;;;;;;;;;;;;-6.73;100.00;99973.31;1686217;83;20180;-68
2022/01/08 06:51:58;;;;;;;;;;;;;;;-6.40;100.00;99970.02;1681279;85;20203;-68
2022/01/08 06:54:24;;;;;;;;;;;;;;;-6.13;100.00;99975.09;1687723;84;21223;-69
2022/01/08 06:56:54;;;;;;;;;;;;;;;-6.14;100.00;99981.30;1686279;84;20156;-68
2022/01/08 06:59:22;;;;;;;;;;;;;;;-6.02;100.00;99982.81;1691343;83;20214;-68
2022/01/08 07:01:52;;;;;;;;;;;;;;;-6.05;100.00;99980.45;1688000;83;20168;-69
2022/01/08 07:04:18;;;;;;;;;;;;;;;-5.99;100.00;99977.80;1693223;83;20435;-68
2022/01/08 07:06:44;;;;;;;;;;;;;;;-5.84;100.00;99975.08;1686391;83;21127;-68
2022/01/08 07:09:11;;;;;;;;;;;;;;;-5.69;100.00;99961.92;1700501;83;20211;-71
2022/01/08 07:11:37;;;;;;;;;;;;;;;-5.51;100.00;99970.36;1679204;83;20528;-68
2022/01/08 07:14:04;;;;;;;;;;;;;;;-5.29;100.00;99963.98;1710155;83;20244;-69
2022/01/08 07:16:31;;;;;;;;;;;;;;;-5.01;100.00;99972.74;1710004;83;20162;-69
2022/01/08 07:18:58;;;;;;;;;;;;;;;-4.71;100.00;99973.45;1704211;83;21149;-68
2022/01/08 07:21:26;;;;;;;;;;;;;;;-4.37;100.00;99980.24;1687880;85;20178;-70
2022/01/08 07:23:53;;;;;;;;;;;;;;;-4.13;100.00;99976.56;1689900;84;20159;-69
2022/01/08 07:26:20;;;;;;;;;;;;;;;-3.94;100.00;99981.35;1697029;83;20221;-69
2022/01/08 07:28:47;;;;;;;;;;;;;;;-3.92;100.00;99982.00;1714680;83;20140;-70
2022/01/08 07:31:14;;;;;;;;;;;;;;;-3.71;100.00;99976.47;1720993;83;21128;-73
2022/01/08 07:33:42;;;;;;;;;;;;;;;-3.56;100.00;99975.44;1690319;82;20137;-69
2022/01/08 07:36:09;;;;;;;;;;;;;;;-3.53;100.00;99972.50;1700759;83;20132;-69
2022/01/08 07:38:36;;;;;;;;;;;;;;;-3.36;100.00;99976.89;1706836;83;20525;-68
2022/01/08 07:41:03;;;;;;;;;;;;;;;-3.14;100.00;99975.56;1704471;83;20188;-68
2022/01/08 07:43:30;;;;;;;;;;;;;;;-3.04;100.00;99972.83;1716468;83;21535;-69
2022/01/08 07:45:56;;;;;;;;;;;;;;;-3.07;100.00;99979.71;1717139;83;20145;-69
2022/01/08 07:48:23;;;;;;;;;;;;;;;-3.09;100.00;99975.09;1700580;83;20506;-67
2022/01/08 07:50:49;;;;;;;;;;;;;;;-2.97;100.00;99978.29;1689187;85;20154;-69
2022/01/08 07:53:18;;;;;;;;;;;;;;;-2.81;100.00;99969.19;1689658;84;20219;-70
2022/01/08 07:55:45;;;;;;;;;;;;;;;-2.60;100.00;99970.09;1689663;84;21169;-70
2022/01/08 07:58:12;;;;;;;;;;;;;;;-2.56;100.00;99970.11;1690301;83;20103;-67
2022/01/08 08:00:38;;;;;;;;;;;;;;;-2.46;100.00;99964.73;1715592;83;20135;-68
2022/01/08 08:03:06;;;;;;;;;;;;;;;-2.47;100.00;99962.59;1716134;83;20594;-68
2022/01/08 08:05:32;;;;;;;;;;;;;;;-2.28;100.00;99972.50;1705281;83;20526;-70
2022/01/08 08:08:00;;;;;;;;;;;;;;;-2.39;100.00;99969.19;1696642;83;21120;-67
2022/01/08 08:10:28;;;;;;;;;;;;;;;-2.28;100.00;99969.87;1689167;85;20170;-68
2022/01/08 08:12:55;;;;;;;;;;;;;;;-2.29;100.00;99970.86;1670528;83;20250;-69
2022/01/08 08:15:24;;;;;;;;;;;;;;;-2.21;100.00;99966.93;1700596;83;20086;-69
2022/01/08 08:17:54;;;;;;;;;;;;;;;-2.20;100.00;99967.28;1692878;84;20176;-71
2022/01/08 08:20:20;;;;;;;;;;;;;;;-2.06;100.00;99965.81;1685683;83;21157;-69
2022/01/08 08:22:47;;;;;;;;;;;;;;;-1.85;100.00;99958.78;1703537;83;20136;-69
2022/01/08 08:25:15;;;;;;;;;;;;;;;-2.01;100.00;99963.05;1714386;83;20459;-68
2022/01/08 08:27:41;;;;;;;;;;;;;;;-1.83;100.00;99953.68;1698578;83;20210;-69
2022/01/08 08:30:09;;;;;;;;;;;;;;;-1.80;100.00;99966.50;1689527;83;20182;-71
2022/01/08 08:32:37;;;;;;;;;;;;;;;-1.52;100.00;99958.27;1666412;83;21190;-72
2022/01/08 08:35:05;;;;;;;;;;;;;;;-1.38;100.00;99959.42;1680155;85;20191;-72
2022/01/08 08:37:36;;;;;;;;;;;;;;;-1.29;100.00;99940.00;1688309;83;20255;-69
2022/01/08 08:40:04;;;;;;;;;;;;;;;-1.54;100.00;99937.40;1692453;83;20174;-71
2022/01/08 08:42:30;;;;;;;;;;;;;;;-1.70;100.00;99939.20;1708965;83;20239;-71
2022/01/08 08:44:56;;;;;;;;;;;;;;;-1.65;100.00;99925.87;1708588;82;21818;-71
2022/01/08 08:47:23;;;;;;;;;;;;;;;-1.66;100.00;99931.32;1701297;83;20146;-70
2022/01/08 08:49:51;;;;;;;;;;;;;;;-1.64;100.00;99917.01;1694779;83;20653;-71
2022/01/08 08:52:17;;;;;;;;;;;;;;;-1.69;100.00;99919.31;1697881;83;20144;-70
2022/01/08 08:54:44;;;;;;;;;;;;;;;-1.69;100.00;99923.27;1689006;84;20148;-71
2022/01/08 08:57:11;;;;;;;;;;;;;;;-1.68;100.00;99926.21;1664028;84;21075;-69
2022/01/08 08:59:38;;;;;;;;;;;;;;;-1.51;100.00;99920.45;1687756;84;20091;-69
2022/01/08 09:02:05;;;;;;;;;;;;;;;-1.34;100.00;99925.20;1688528;83;20160;-71
2022/01/08 09:04:33;;;;;;;;;;;;;;;-1.18;100.00;99921.19;1689677;83;20195;-70
2022/01/08 09:06:59;;;;;;;;;;;;;;;-1.03;100.00;99920.50;1688207;83;20168;-70
2022/01/08 09:09:27;;;;;;;;;;;;;;;-0.75;100.00;99924.36;1690814;83;21138;-69
2022/01/08 09:11:53;;;;;;;;;;;;;;;-0.54;100.00;99922.94;1685374;83;20520;-71
2022/01/08 09:14:20;;;;;;;;;;;;;;;-0.58;100.00;99909.80;1688760;83;20131;-72
2022/01/08 09:16:49;;;;;;;;;;;;;;;-0.75;100.00;99919.09;1692626;83;20203;-70
2022/01/08 09:19:16;;;;;;;;;;;;;;;-0.64;100.00;99912.59;1684634;84;20183;-67
2022/01/08 09:21:44;;;;;;;;;;;;;;;-0.86;100.00;99920.77;1684133;83;21228;-71
2022/01/08 09:24:10;;;;;;;;;;;;;;;-0.62;100.00;99913.76;1688314;83;20208;-70
2022/01/08 09:26:38;;;;;;;;;;;;;;;-0.63;100.00;99914.27;1692159;83;20963;-68
2022/01/08 09:29:05;;;;;;;;;;;;;;;-0.77;100.00;99911.84;1683664;84;20645;-68
2022/01/08 09:31:32;;;;;;;;;;;;;;;-0.87;100.00;99902.00;1686715;84;20174;-67
2022/01/08 09:34:00;;;;;;;;;;;;;;;-1.17;100.00;99884.66;1685310;83;21152;-68
2022/01/08 09:36:28;;;;;;;;;;;;;;;-1.24;100.00;99894.22;1682831;84;20486;-72
2022/01/08 09:39:01;;;;;;;;;;;;;;;-1.25;100.00;99893.91;1683105;83;20512;-70
2022/01/08 09:41:27;;;;;;;;;;;;;;;-1.28;100.00;99882.38;1683453;84;20418;-69
2022/01/08 09:43:55;;;;;;;;;;;;;;;-1.16;100.00;99877.57;1683887;83;20520;-69
2022/01/08 09:46:21;;;;;;;;;;;;;;;-1.31;100.00;99883.53;1684288;83;21087;-70
2022/01/08 09:48:50;;;;;;;;;;;;;;;-1.47;100.00;99873.06;1689954;83;20662;-68
2022/01/08 09:51:19;;;;;;;;;;;;;;;-1.41;100.00;99872.37;1680498;84;20218;-70
2022/01/08 09:53:47;;;;;;;;;;;;;;;-1.37;100.00;99868.42;1689686;83;20169;-70
2022/01/08 09:56:13;;;;;;;;;;;;;;;-1.41;100.00;99863.66;1690801;83;20620;-69
2022/01/08 09:58:41;;;;;;;;;;;;;;;-1.30;100.00;99856.70;1690583;83;22393;-71
2022/01/08 10:01:23;;;;;;;;;;;;;;;-1.42;100.00;99868.58;1681898;83;20107;-71
2022/01/08 10:04:10;;;;;;;;;;;;;;;-1.38;100.00;99870.70;1685486;83;20154;-71
2022/01/08 10:06:37;;;;;;;;;;;;;;;-0.95;100.00;99858.56;1729245;81;20259;-69
2022/01/08 10:09:06;;;;;;;;;;;;;;;-0.74;100.00;99856.13;1730798;81;20192;-70
2022/01/08 10:11:33;;;;;;;;;;;;;;;-0.62;100.00;99862.34;1725554;81;21176;-69
2022/01/08 10:14:05;;;;;;;;;;;;;;;-0.74;100.00;99859.27;1728386;81;20185;-68
2022/01/08 10:19:25;;;;;;;;;;;;;;;-1.22;100.00;99848.78;1724042;81;20145;-68
2022/01/08 10:21:53;;;;;;;;;;;;;;;-1.38;100.00;99860.17;1722226;81;20302;-70
2022/01/08 10:24:23;;;;;;;;;;;;;;;-1.48;100.00;99832.41;1721889;81;21157;-68
2022/01/08 10:26:51;;;;;;;;;;;;;;;-1.67;100.00;99815.16;1713594;81;20133;-68
2022/01/08 10:29:19;;;;;;;;;;;;;;;-1.70;100.00;99853.67;1732799;82;20513;-70
2022/01/08 10:31:50;;;;;;;;;;;;;;;-1.70;100.00;99843.14;1725066;82;20603;-73
2022/01/08 10:34:21;;;;;;;;;;;;;;;-1.65;100.00;99835.56;1719483;82;20295;-69
2022/01/08 10:36:50;;;;;;;;;;;;;;;-1.65;100.00;99821.91;1717948;83;22216;-69
2022/01/08 10:39:28;;;;;;;;;;;;;;;-1.65;100.00;99824.53;1747580;80;20557;-71
2022/01/08 10:41:59;;;;;;;;;;;;;;;-1.70;100.00;99816.33;1762007;81;20226;-72
2022/01/08 10:44:27;;;;;;;;;;;;;;;-1.66;100.00;99822.09;1743017;82;20619;-72
2022/01/08 10:47:05;;;;;;;;;;;;;;;-1.65;100.00;99817.95;1764403;81;20120;-72
2022/01/08 10:49:42;;;;;;;;;;;;;;;-1.62;100.00;99810.22;1734726;80;21168;-69
2022/01/08 10:52:33;;;;;;;;;;;;;;;-1.60;100.00;99812.19;1756791;81;20171;-73
2022/01/08 10:55:01;;;;;;;;;;;;;;;-1.66;100.00;99814.20;1665788;85;20160;-71
2022/01/08 10:57:32;;;;;;;;;;;;;;;-1.76;100.00;99810.43;1694044;83;20160;-72
2022/01/08 10:59:58;;;;;;;;;;;;;;;-1.87;100.00;99808.13;1659968;84;20150;-71
2022/01/08 11:02:26;;;;;;;;;;;;;;;-1.92;100.00;99794.66;1689004;84;20932;-71
2022/01/08 11:04:54;;;;;;;;;;;;;;;-1.87;100.00;99800.24;1712069;83;20155;-69
2022/01/08 11:07:29;;;;;;;;;;;;;;;-1.95;100.00;99782.16;1692384;83;20231;-71
2022/01/08 11:10:00;;;;;;;;;;;;;;;-1.97;100.00;99760.95;1689522;83;20144;-73
2022/01/08 11:12:37;;;;;;;;;;;;;;;-1.97;100.00;99774.11;1690810;83;20213;-68
2022/01/08 11:15:35;;;;;;;;;;;;;;;-1.97;100.00;99760.95;1692976;83;21153;-69
2022/01/08 11:17:39;;;;;;;;;;;;;;;-1.93;100.00;99760.96;1685714;83;20520;-72
2022/01/08 11:20:14;;;;;;;;;;;;;;;-1.86;100.00;99750.56;1696274;83;20164;-73
2022/01/08 11:22:44;;;;;;;;;;;;;;;-1.84;100.00;99747.27;1708885;83;20130;-68
2022/01/08 11:25:14;;;;;;;;;;;;;;;-1.77;100.00;99747.74;1676205;85;20179;-69
2022/01/08 11:27:57;;;;;;;;;;;;;;;-1.72;100.00;99746.73;1684447;84;21099;-70
2022/01/08 11:30:25;;;;;;;;;;;;;;;-1.68;100.00;99744.61;1676029;84;20522;-68
2022/01/08 11:32:59;;;;;;;;;;;;;;;-1.68;100.00;99745.11;1656876;84;20172;-69
2022/01/08 11:35:29;;;;;;;;;;;;;;;-1.72;100.00;99705.95;1693144;83;20190;-69
2022/01/08 11:37:56;;;;;;;;;;;;;;;-1.68;100.00;99726.18;1693144;84;20589;-68
2022/01/08 11:40:26;;;;;;;;;;;;;;;-1.64;100.00;99731.91;1690336;83;21221;-70
2022/01/08 11:42:55;;;;;;;;;;;;;;;-1.62;100.00;99730.75;1716078;83;20176;-69
2022/01/08 11:45:25;;;;;;;;;;;;;;;-1.58;100.00;99729.42;1696372;83;20497;-69
2022/01/08 11:47:53;;;;;;;;;;;;;;;-1.62;100.00;99720.22;1711613;83;20149;-69
2022/01/08 11:50:21;;;;;;;;;;;;;;;-1.62;100.00;99718.09;1682191;84;20187;-69
2022/01/08 11:53:10;;;;;;;;;;;;;;;-1.62;100.00;99713.64;1681417;83;20785;-68
2022/01/08 11:55:37;;;;;;;;;;;;;;;-1.63;100.00;99713.83;1677883;84;20107;-69
2022/01/08 11:58:26;;;;;;;;;;;;;;;-1.74;100.00;99706.64;1680894;85;20177;-70
2022/01/08 12:00:58;;;;;;;;;;;;;;;-1.82;100.00;99681.65;1680347;85;20946;-70
2022/01/08 12:03:32;;;;;;;;;;;;;;;-1.87;100.00;99689.23;1682041;85;20144;-70
2022/01/08 12:06:30;;;;;;;;;;;;;;;-1.89;100.00;99708.81;1684422;85;22014;-70
2022/01/08 12:09:27;;;;;;;;;;;;;;;-1.93;100.00;99678.59;1684608;84;20506;-72
2022/01/08 12:12:04;;;;;;;;;;;;;;;-1.92;100.00;99681.53;1684411;85;20173;-73
2022/01/08 12:14:40;;;;;;;;;;;;;;;-1.89;100.00;99690.39;1684636;85;20144;-70
2022/01/08 12:17:13;;;;;;;;;;;;;;;-1.89;100.00;99687.27;1684889;85;20207;-70
2022/01/08 12:19:45;;;;;;;;;;;;;;;-1.92;100.00;99674.95;1679097;85;22016;-70
2022/01/08 12:22:22;;;;;;;;;;;;;;;-1.96;100.00;99675.77;1684596;85;20437;-69
2022/01/08 12:24:52;;;;;;;;;;;;;;;-1.97;100.00;99675.46;1689549;83;20197;-70
2022/01/08 12:27:22;;;;;;;;;;;;;;;-1.96;100.00;99671.36;1686936;84;20153;-71
2022/01/08 12:29:48;;;;;;;;;;;;;;;-1.92;100.00;99663.12;1688565;83;20166;-70
2022/01/08 12:32:26;;;;;;;;;;;;;;;-1.90;100.00;99671.66;1709254;83;21193;-70
2022/01/08 12:35:00;;;;;;;;;;;;;;;-1.89;100.00;99658.83;1700251;83;20128;-70
2022/01/08 12:37:22;;;;;;;;;;;;;;;-1.90;100.00;99651.43;1689127;84;20100;-70
2022/01/08 12:39:50;;;;;;;;;;;;;;;-1.93;100.00;99656.23;1666005;85;20693;-70
2022/01/08 12:42:26;;;;;;;;;;;;;;;-1.96;100.00;99657.36;1689368;85;20099;-70
2022/01/08 12:45:06;;;;;;;;;;;;;;;-1.97;100.00;99664.44;1689477;85;22048;-70
2022/01/08 12:47:48;;;;;;;;;;;;;;;-1.97;100.00;99664.94;1695621;84;20208;-71
2022/01/08 12:50:46;;;;;;;;;;;;;;;-1.98;100.00;99669.39;1687701;82;20132;-69
2022/01/08 12:53:25;;;;;;;;;;;;;;;-1.95;100.00;99663.78;1720313;83;20130;-68
2022/01/08 12:55:58;;;;;;;;;;;;;;;-1.94;100.00;99675.11;1699809;83;20171;-70
2022/01/08 12:58:30;;;;;;;;;;;;;;;-1.95;100.00;99655.07;1684690;84;21256;-69
2022/01/08 13:01:07;;;;;;;;;;;;;;;-1.97;100.00;99676.78;1693946;83;20455;-72
2022/01/08 13:03:57;;;;;;;;;;;;;;;-1.98;100.00;99658.05;1683738;83;20131;-69